Terminal Aerodrome Forecast
Issued by NWS

Home | Current Version | Previous Version | Text Only | Print | Product List | Glossary On
Versions: 1 2 3 4 5 6 7 8 9 10 11 12 13 14 15 16
000
FTUS46 KSGX 031120
TAFONT
TAF
KONT 031120Z 0312/0418 VRB04KT P6SM SKC
     FM032100 26012G18KT P6SM SCT200
     FM040400 25005KT P6SM BKN200
     FM041200 VRB04KT 5SM BR BKN010
     FM041600 VRB03KT 6SM HZ SCT012=

USA.gov is the U.S. government's official web portal to all federal, state and local government web resources and services.